Time;durP1;ratioP1;P1;durP2;ratioP2;P2;SDS_P1;SDS_P2;PMS_P1;PMS_P2;Temp;Humidity;BMP_temperature;BMP_pressure;BME280_temperature;BME280_humidity;BME280_pressure;Samples;Min_cycle;Max_cycle;Signal;HPM_P1;HPM_P2
2020/12/24 00:02:11;;;;;;;28.60;17.37;;;;;;;;;;689996;198;919265;-64
2020/12/24 00:04:37;;;;;;;19.47;13.13;;;;;;;;;;683323;202;950402;-64
2020/12/24 00:07:03;;;;;;;24.80;13.80;;;;;;;;;;686037;202;922457;-64
2020/12/24 00:09:28;;;;;;;24.60;13.80;;;;;;;;;;686762;202;918647;-63
2020/12/24 00:11:55;;;;;;;25.92;16.35;;;;;;;;;;685837;202;918928;-64
2020/12/24 00:14:22;;;;;;;27.67;17.07;;;;;;;;;;687454;202;919766;-64
2020/12/24 00:16:47;;;;;;;27.40;17.10;;;;;;;;;;692888;199;918776;-64
2020/12/24 00:19:13;;;;;;;29.33;16.50;;;;;;;;;;688845;201;940466;-64
2020/12/24 00:21:39;;;;;;;27.50;16.80;;;;;;;;;;678340;199;2503665;-65
2020/12/24 00:24:05;;;;;;;24.40;16.17;;;;;;;;;;683923;201;918345;-63
2020/12/24 00:26:31;;;;;;;25.10;16.93;;;;;;;;;;686920;199;919458;-64
2020/12/24 00:28:57;;;;;;;27.27;18.40;;;;;;;;;;686102;201;919475;-66
2020/12/24 00:31:22;;;;;;;26.70;17.40;;;;;;;;;;684091;201;919011;-64
2020/12/24 00:33:48;;;;;;;30.90;17.97;;;;;;;;;;705979;198;919115;-64
2020/12/24 00:36:14;;;;;;;25.88;17.40;;;;;;;;;;699028;197;1018080;-63
2020/12/24 00:38:40;;;;;;;28.17;16.80;;;;;;;;;;699388;197;918974;-64
2020/12/24 00:41:06;;;;;;;27.37;17.20;;;;;;;;;;703038;195;918156;-64
2020/12/24 00:43:32;;;;;;;25.23;17.47;;;;;;;;;;701903;198;918550;-64
2020/12/24 00:45:58;;;;;;;27.80;18.07;;;;;;;;;;698746;196;964517;-64
2020/12/24 00:48:23;;;;;;;28.70;17.90;;;;;;;;;;705650;198;918692;-63
2020/12/24 00:50:49;;;;;;;31.60;18.47;;;;;;;;;;700910;198;918934;-67
2020/12/24 00:53:15;;;;;;;25.93;18.13;;;;;;;;;;700785;198;918243;-64
2020/12/24 00:55:41;;;;;;;30.43;18.83;;;;;;;;;;700123;198;919744;-64
2020/12/24 00:58:07;;;;;;;28.67;18.23;;;;;;;;;;703672;198;919343;-64
2020/12/24 01:00:33;;;;;;;29.40;19.00;;;;;;;;;;701132;198;922167;-64
2020/12/24 01:02:59;;;;;;;31.37;19.20;;;;;;;;;;697817;195;918856;-64
2020/12/24 01:05:24;;;;;;;30.57;19.37;;;;;;;;;;705198;196;919479;-65
2020/12/24 01:07:50;;;;;;;26.42;18.65;;;;;;;;;;697802;196;1237809;-64
2020/12/24 01:10:16;;;;;;;32.83;19.97;;;;;;;;;;700464;196;917326;-64
2020/12/24 01:12:42;;;;;;;33.17;20.13;;;;;;;;;;703907;196;918674;-64
2020/12/24 01:15:08;;;;;;;26.53;18.40;;;;;;;;;;701108;196;920999;-64
2020/12/24 01:17:34;;;;;;;32.53;20.50;;;;;;;;;;697929;196;923070;-64
2020/12/24 01:20:00;;;;;;;32.25;19.55;;;;;;;;;;700785;197;912353;-63
2020/12/24 01:22:25;;;;;;;32.43;20.80;;;;;;;;;;677938;204;931584;-64
2020/12/24 01:24:51;;;;;;;30.57;19.57;;;;;;;;;;688164;201;914149;-65
2020/12/24 01:27:17;;;;;;;35.90;20.83;;;;;;;;;;686390;200;1006764;-65
2020/12/24 01:29:43;;;;;;;33.63;19.07;;;;;;;;;;690932;201;912006;-64
2020/12/24 01:32:09;;;;;;;28.77;18.20;;;;;;;;;;686747;201;911066;-64
2020/12/24 01:34:35;;;;;;;38.63;21.10;;;;;;;;;;673732;204;912986;-64
2020/12/24 01:37:01;;;;;;;32.33;21.43;;;;;;;;;;683128;205;916513;-64
2020/12/24 01:39:26;;;;;;;31.80;19.37;;;;;;;;;;674823;205;920558;-64
2020/12/24 01:41:52;;;;;;;29.27;19.87;;;;;;;;;;677960;204;916096;-64
2020/12/24 01:44:18;;;;;;;36.10;19.73;;;;;;;;;;679596;204;915583;-64
2020/12/24 01:46:44;;;;;;;29.70;17.90;;;;;;;;;;677095;204;915507;-64
2020/12/24 01:49:10;;;;;;;29.67;17.70;;;;;;;;;;668604;205;2036632;-64
2020/12/24 01:51:36;;;;;;;28.03;18.17;;;;;;;;;;672291;206;921443;-63
2020/12/24 01:54:03;;;;;;;26.37;18.30;;;;;;;;;;677480;202;915764;-64
2020/12/24 01:56:27;;;;;;;29.80;17.70;;;;;;;;;;668914;205;916005;-64
2020/12/24 01:58:53;;;;;;;28.87;19.50;;;;;;;;;;668872;205;916296;-63
2020/12/24 02:01:19;;;;;;;25.20;16.83;;;;;;;;;;693937;201;920223;-64
2020/12/24 02:03:45;;;;;;;27.57;16.70;;;;;;;;;;686272;201;918974;-67
2020/12/24 02:06:11;;;;;;;26.23;15.70;;;;;;;;;;689028;199;919436;-64
2020/12/24 02:08:37;;;;;;;23.70;14.40;;;;;;;;;;692780;202;919576;-64
2020/12/24 02:11:02;;;;;;;26.27;15.40;;;;;;;;;;687693;201;919715;-64
2020/12/24 02:13:28;;;;;;;23.50;16.67;;;;;;;;;;690463;201;967675;-64
2020/12/24 02:15:54;;;;;;;23.33;15.37;;;;;;;;;;695057;200;816220;-64
2020/12/24 02:18:20;;;;;;;21.57;14.63;;;;;;;;;;685838;204;919146;-64
2020/12/24 02:20:46;;;;;;;22.93;13.90;;;;;;;;;;686414;200;919407;-65
2020/12/24 02:23:12;;;;;;;23.07;13.83;;;;;;;;;;688542;200;922390;-64
2020/12/24 02:25:37;;;;;;;21.00;12.73;;;;;;;;;;692557;201;918000;-64
2020/12/24 02:28:03;;;;;;;22.53;13.83;;;;;;;;;;689999;202;918971;-64
2020/12/24 02:30:29;;;;;;;19.97;13.57;;;;;;;;;;686593;200;920323;-64
2020/12/24 02:32:55;;;;;;;20.90;13.80;;;;;;;;;;693911;202;920709;-64
2020/12/24 02:35:21;;;;;;;28.97;15.63;;;;;;;;;;687518;199;922491;-64
2020/12/24 02:37:47;;;;;;;22.07;14.33;;;;;;;;;;687723;199;922753;-65
2020/12/24 02:40:12;;;;;;;19.53;14.27;;;;;;;;;;690625;201;918988;-65
2020/12/24 02:42:38;;;;;;;19.17;13.35;;;;;;;;;;691535;200;918813;-65
2020/12/24 02:45:04;;;;;;;21.70;15.03;;;;;;;;;;690626;201;918900;-65
2020/12/24 02:47:30;;;;;;;25.88;14.75;;;;;;;;;;687460;201;919842;-65
2020/12/24 02:49:56;;;;;;;19.80;13.90;;;;;;;;;;672611;207;919264;-65
2020/12/24 02:52:23;;;;;;;18.93;14.00;;;;;;;;;;668802;205;920828;-65
2020/12/24 02:54:48;;;;;;;22.10;14.17;;;;;;;;;;676213;204;918328;-64
2020/12/24 02:57:14;;;;;;;22.70;13.50;;;;;;;;;;679971;204;1171412;-65
2020/12/24 02:59:40;;;;;;;23.03;16.10;;;;;;;;;;689110;199;918070;-65
2020/12/24 03:02:06;;;;;;;24.80;14.95;;;;;;;;;;686557;200;920719;-65
2020/12/24 03:04:33;;;;;;;26.00;16.33;;;;;;;;;;690621;202;925500;-65
2020/12/24 03:06:58;;;;;;;24.37;16.60;;;;;;;;;;688938;201;916514;-65
2020/12/24 03:09:23;;;;;;;26.17;16.03;;;;;;;;;;690279;201;919006;-65
2020/12/24 03:11:49;;;;;;;24.70;14.60;;;;;;;;;;689132;202;919442;-65
2020/12/24 03:14:15;;;;;;;24.47;16.07;;;;;;;;;;689350;202;919150;-65
2020/12/24 03:16:41;;;;;;;23.50;16.53;;;;;;;;;;686723;199;919191;-65
2020/12/24 03:19:07;;;;;;;26.40;16.02;;;;;;;;;;688672;202;1020927;-65
2020/12/24 03:21:33;;;;;;;27.50;18.47;;;;;;;;;;692518;199;918674;-65
2020/12/24 03:23:58;;;;;;;25.47;16.53;;;;;;;;;;686255;201;918861;-65
2020/12/24 03:26:24;;;;;;;28.98;18.05;;;;;;;;;;687453;201;919453;-65
2020/12/24 03:28:50;;;;;;;22.97;16.90;;;;;;;;;;692504;201;919356;-65
2020/12/24 03:31:16;;;;;;;20.50;14.45;;;;;;;;;;687507;201;919753;-65
2020/12/24 03:33:42;;;;;;;22.60;15.40;;;;;;;;;;684181;202;918667;-65
2020/12/24 03:36:08;;;;;;;23.30;16.10;;;;;;;;;;693743;201;918613;-65
2020/12/24 03:38:34;;;;;;;26.57;18.20;;;;;;;;;;687853;199;918411;-65
2020/12/24 03:40:59;;;;;;;25.80;15.48;;;;;;;;;;687806;202;918971;-64
2020/12/24 03:43:26;;;;;;;23.27;16.00;;;;;;;;;;689767;199;918712;-64
2020/12/24 03:45:51;;;;;;;28.53;17.33;;;;;;;;;;671027;206;919508;-65
2020/12/24 03:48:17;;;;;;;30.33;16.93;;;;;;;;;;662038;209;919066;-65
2020/12/24 03:50:43;;;;;;;27.37;17.40;;;;;;;;;;676050;204;918462;-65
2020/12/24 03:53:09;;;;;;;28.03;16.10;;;;;;;;;;680063;205;918499;-65
2020/12/24 03:55:35;;;;;;;23.83;15.57;;;;;;;;;;676898;205;918544;-64
2020/12/24 03:58:01;;;;;;;24.50;16.30;;;;;;;;;;674941;205;919133;-65
2020/12/24 04:00:27;;;;;;;30.53;16.47;;;;;;;;;;682058;205;918398;-65
2020/12/24 04:02:53;;;;;;;23.00;16.10;;;;;;;;;;678254;205;919060;-65
2020/12/24 04:05:19;;;;;;;20.25;14.00;;;;;;;;;;675204;205;956531;-65
2020/12/24 04:07:45;;;;;;;19.87;13.77;;;;;;;;;;681999;205;918694;-65
2020/12/24 04:10:10;;;;;;;23.50;16.63;;;;;;;;;;664564;209;919289;-65
2020/12/24 04:12:36;;;;;;;18.90;12.20;;;;;;;;;;667250;209;918769;-65
2020/12/24 04:15:02;;;;;;;24.00;15.00;;;;;;;;;;673656;205;919135;-65
2020/12/24 04:17:28;;;;;;;22.27;14.20;;;;;;;;;;683351;204;919228;-65
2020/12/24 04:19:54;;;;;;;19.35;13.32;;;;;;;;;;673231;203;918915;-65
2020/12/24 04:22:20;;;;;;;20.60;13.40;;;;;;;;;;674673;206;918802;-65
2020/12/24 04:24:45;;;;;;;19.63;14.40;;;;;;;;;;677239;205;1234876;-65
2020/12/24 04:27:11;;;;;;;21.00;15.53;;;;;;;;;;673757;206;918752;-65
2020/12/24 04:29:37;;;;;;;30.00;14.75;;;;;;;;;;673513;205;918870;-65
2020/12/24 04:32:03;;;;;;;21.97;14.90;;;;;;;;;;681689;205;918560;-65
2020/12/24 04:34:30;;;;;;;21.80;15.95;;;;;;;;;;673617;205;919119;-66
2020/12/24 04:36:56;;;;;;;22.80;14.10;;;;;;;;;;675771;205;919132;-64
2020/12/24 04:39:21;;;;;;;24.87;15.37;;;;;;;;;;676567;205;919191;-65
2020/12/24 04:41:47;;;;;;;29.07;16.03;;;;;;;;;;676509;201;918823;-65
2020/12/24 04:44:13;;;;;;;25.20;14.95;;;;;;;;;;670090;205;918887;-65
2020/12/24 04:46:39;;;;;;;22.03;15.23;;;;;;;;;;673515;205;918219;-65
2020/12/24 04:49:05;;;;;;;21.52;14.68;;;;;;;;;;678469;205;919307;-65
2020/12/24 04:51:31;;;;;;;25.30;16.60;;;;;;;;;;686298;199;941749;-64
2020/12/24 04:53:56;;;;;;;23.10;15.50;;;;;;;;;;689342;199;919073;-65
2020/12/24 04:56:22;;;;;;;28.93;17.73;;;;;;;;;;690995;199;918515;-65
2020/12/24 04:58:48;;;;;;;31.17;16.30;;;;;;;;;;691007;199;919344;-64
2020/12/24 05:01:14;;;;;;;25.73;16.70;;;;;;;;;;688024;200;919378;-65
2020/12/24 05:03:40;;;;;;;27.90;15.90;;;;;;;;;;695603;200;923324;-65
2020/12/24 05:06:06;;;;;;;27.77;16.67;;;;;;;;;;688341;200;920433;-65
2020/12/24 05:08:32;;;;;;;29.77;17.90;;;;;;;;;;690883;201;919680;-65
2020/12/24 05:11:02;;;;;;;29.60;18.87;;;;;;;;;;686394;199;1162418;-65
2020/12/24 05:13:28;;;;;;;30.67;19.43;;;;;;;;;;693102;202;919289;-64
2020/12/24 05:15:54;;;;;;;27.17;18.50;;;;;;;;;;690456;201;918835;-64
2020/12/24 05:18:22;;;;;;;30.80;19.57;;;;;;;;;;685195;199;919770;-64
2020/12/24 05:20:47;;;;;;;30.83;21.30;;;;;;;;;;693900;199;919784;-64
2020/12/24 05:23:13;;;;;;;35.47;19.70;;;;;;;;;;688412;199;914964;-64
2020/12/24 05:25:39;;;;;;;41.77;21.80;;;;;;;;;;689830;199;919967;-64
2020/12/24 05:28:05;;;;;;;37.50;21.20;;;;;;;;;;686258;198;919880;-63
2020/12/24 05:30:31;;;;;;;33.83;20.87;;;;;;;;;;694530;199;918823;-64
2020/12/24 05:32:56;;;;;;;33.73;19.97;;;;;;;;;;689165;199;918068;-64
2020/12/24 05:35:23;;;;;;;42.70;22.80;;;;;;;;;;689192;199;922141;-64
2020/12/24 05:37:50;;;;;;;42.40;22.53;;;;;;;;;;691951;202;918754;-65
2020/12/24 05:40:17;;;;;;;41.93;22.07;;;;;;;;;;689231;200;918314;-64
2020/12/24 05:42:49;;;;;;;42.43;22.10;;;;;;;;;;687489;201;918007;-65
2020/12/24 05:45:16;;;;;;;38.77;21.87;;;;;;;;;;688724;201;919426;-65
2020/12/24 05:47:42;;;;;;;39.37;23.63;;;;;;;;;;691070;201;919376;-65
2020/12/24 05:50:08;;;;;;;38.33;23.37;;;;;;;;;;689085;202;919358;-65
2020/12/24 05:52:33;;;;;;;37.43;23.00;;;;;;;;;;686443;200;1027426;-70
2020/12/24 05:54:59;;;;;;;40.00;24.03;;;;;;;;;;692575;199;917294;-64
2020/12/24 05:57:25;;;;;;;36.00;22.70;;;;;;;;;;686506;201;919566;-68
2020/12/24 05:59:51;;;;;;;39.80;25.73;;;;;;;;;;682996;200;1837471;-65
2020/12/24 06:02:17;;;;;;;40.80;22.80;;;;;;;;;;691879;199;922522;-65
2020/12/24 06:04:51;;;;;;;47.27;24.33;;;;;;;;;;686762;202;919122;-65
2020/12/24 06:07:29;;;;;;;44.30;23.50;;;;;;;;;;689458;202;918697;-65
2020/12/24 06:09:54;;;;;;;49.67;24.83;;;;;;;;;;687689;202;918851;-66
2020/12/24 06:12:20;;;;;;;38.70;22.43;;;;;;;;;;688244;200;919440;-65
2020/12/24 06:14:47;;;;;;;41.93;24.27;;;;;;;;;;692407;201;918600;-64
2020/12/24 06:17:13;;;;;;;34.53;24.17;;;;;;;;;;690805;201;919322;-65
2020/12/24 06:19:39;;;;;;;42.10;22.47;;;;;;;;;;688350;199;918553;-65
2020/12/24 06:22:04;;;;;;;37.00;20.70;;;;;;;;;;691603;201;918863;-65
2020/12/24 06:24:31;;;;;;;35.90;20.70;;;;;;;;;;688324;201;918295;-65
2020/12/24 06:26:57;;;;;;;32.70;21.27;;;;;;;;;;689293;201;919410;-65
2020/12/24 06:29:22;;;;;;;34.85;22.48;;;;;;;;;;690820;201;919395;-64
2020/12/24 06:31:48;;;;;;;37.87;20.57;;;;;;;;;;689023;204;918196;-65
2020/12/24 06:34:20;;;;;;;35.47;21.07;;;;;;;;;;686022;198;918116;-65
2020/12/24 06:36:46;;;;;;;39.53;20.97;;;;;;;;;;688941;200;918549;-65
2020/12/24 06:39:12;;;;;;;37.70;21.30;;;;;;;;;;690993;202;919325;-65
2020/12/24 06:41:38;;;;;;;31.40;18.80;;;;;;;;;;690393;199;922263;-65
2020/12/24 06:44:04;;;;;;;33.57;19.87;;;;;;;;;;689785;200;921688;-65
2020/12/24 06:46:30;;;;;;;27.83;17.50;;;;;;;;;;691691;201;918844;-65
2020/12/24 06:48:58;;;;;;;32.30;19.80;;;;;;;;;;690783;202;919443;-65
2020/12/24 06:51:24;;;;;;;36.10;20.67;;;;;;;;;;685796;201;918719;-64
2020/12/24 06:53:50;;;;;;;33.70;19.50;;;;;;;;;;688678;201;919607;-64
2020/12/24 06:56:20;;;;;;;32.17;17.87;;;;;;;;;;691992;202;920050;-65
2020/12/24 06:58:46;;;;;;;30.60;18.63;;;;;;;;;;690608;200;945262;-65
2020/12/24 07:01:16;;;;;;;29.07;17.40;;;;;;;;;;685577;199;1302518;-65
2020/12/24 07:03:42;;;;;;;30.67;17.17;;;;;;;;;;687698;201;919645;-64
2020/12/24 07:06:07;;;;;;;30.07;18.17;;;;;;;;;;689779;201;920331;-64
2020/12/24 07:08:36;;;;;;;28.07;18.63;;;;;;;;;;689604;201;919032;-65
2020/12/24 07:11:02;;;;;;;29.10;17.77;;;;;;;;;;686215;199;922051;-64
2020/12/24 07:13:34;;;;;;;30.87;19.30;;;;;;;;;;692231;199;915336;-64
2020/12/24 07:16:09;;;;;;;30.10;16.37;;;;;;;;;;686943;202;921059;-67
2020/12/24 07:18:35;;;;;;;29.98;16.48;;;;;;;;;;686255;200;920365;-64
2020/12/24 07:21:03;;;;;;;22.70;14.60;;;;;;;;;;688867;198;913327;-66
2020/12/24 07:23:30;;;;;;;26.85;15.60;;;;;;;;;;688526;201;915974;-63
2020/12/24 07:25:55;;;;;;;25.77;14.77;;;;;;;;;;673607;206;915584;-64
2020/12/24 07:28:21;;;;;;;25.03;17.10;;;;;;;;;;664385;208;920057;-63
2020/12/24 07:30:53;;;;;;;23.93;14.00;;;;;;;;;;677111;204;942054;-65
2020/12/24 07:33:19;;;;;;;22.40;14.07;;;;;;;;;;679504;205;919088;-63
2020/12/24 07:35:45;;;;;;;23.87;13.90;;;;;;;;;;677083;205;918903;-63
2020/12/24 07:38:10;;;;;;;25.30;15.13;;;;;;;;;;670907;205;926577;-64
2020/12/24 07:40:36;;;;;;;27.77;15.27;;;;;;;;;;680540;205;919065;-63
2020/12/24 07:43:06;;;;;;;28.70;16.03;;;;;;;;;;678160;205;918422;-63
2020/12/24 07:45:32;;;;;;;31.67;16.73;;;;;;;;;;675818;205;927259;-64
2020/12/24 07:47:57;;;;;;;27.83;15.50;;;;;;;;;;672780;201;1005847;-64
2020/12/24 07:50:28;;;;;;;22.70;14.70;;;;;;;;;;678876;205;919363;-63
2020/12/24 07:52:54;;;;;;;25.10;13.40;;;;;;;;;;673956;204;918483;-65
2020/12/24 07:55:20;;;;;;;31.67;15.05;;;;;;;;;;674598;205;919308;-64
2020/12/24 07:57:46;;;;;;;22.58;12.75;;;;;;;;;;689207;199;919249;-62
2020/12/24 08:00:12;;;;;;;23.83;14.50;;;;;;;;;;670320;206;918023;-64
2020/12/24 08:02:38;;;;;;;25.37;16.17;;;;;;;;;;673551;205;918896;-63
2020/12/24 08:05:04;;;;;;;23.33;14.20;;;;;;;;;;676621;204;919439;-63
2020/12/24 08:07:30;;;;;;;32.43;17.37;;;;;;;;;;679306;205;919313;-63
2020/12/24 08:09:55;;;;;;;29.23;17.40;;;;;;;;;;673883;204;919365;-64
2020/12/24 08:12:22;;;;;;;28.60;18.53;;;;;;;;;;671739;205;919016;-63
2020/12/24 08:14:47;;;;;;;30.00;17.47;;;;;;;;;;678172;204;918226;-63
2020/12/24 08:17:15;;;;;;;28.23;15.27;;;;;;;;;;673147;206;930495;-64
2020/12/24 08:19:41;;;;;;;27.63;15.23;;;;;;;;;;675809;205;918086;-63
2020/12/24 08:22:07;;;;;;;25.90;14.60;;;;;;;;;;679753;205;919315;-64
2020/12/24 08:24:33;;;;;;;26.30;15.50;;;;;;;;;;668870;206;919261;-63
2020/12/24 08:26:59;;;;;;;23.40;16.00;;;;;;;;;;675000;204;919081;-64
2020/12/24 08:29:25;;;;;;;28.98;16.92;;;;;;;;;;672878;205;940824;-64
2020/12/24 08:31:51;;;;;;;24.40;14.83;;;;;;;;;;681238;204;919641;-63
2020/12/24 08:34:17;;;;;;;31.40;17.00;;;;;;;;;;671280;206;918878;-63
2020/12/24 08:36:43;;;;;;;30.67;18.37;;;;;;;;;;676905;204;914390;-64
2020/12/24 08:39:09;;;;;;;30.27;17.40;;;;;;;;;;679741;202;920631;-64
2020/12/24 08:41:36;;;;;;;31.90;18.23;;;;;;;;;;690504;199;916040;-64
2020/12/24 08:44:05;;;;;;;27.93;15.80;;;;;;;;;;688865;201;915247;-65
2020/12/24 08:46:31;;;;;;;31.77;17.10;;;;;;;;;;688732;199;919198;-63
2020/12/24 08:48:57;;;;;;;33.07;18.63;;;;;;;;;;695661;199;820414;-64
2020/12/24 08:51:22;;;;;;;31.03;18.03;;;;;;;;;;686784;199;918294;-64
2020/12/24 08:53:49;;;;;;;29.98;17.23;;;;;;;;;;690650;200;917838;-64
2020/12/24 08:56:15;;;;;;;25.33;13.40;;;;;;;;;;692704;199;919364;-64
2020/12/24 08:58:46;;;;;;;35.60;16.17;;;;;;;;;;688207;199;919499;-64
2020/12/24 09:01:12;;;;;;;32.13;17.13;;;;;;;;;;688848;200;917973;-64
2020/12/24 09:03:38;;;;;;;27.27;17.13;;;;;;;;;;688899;201;919080;-65
2020/12/24 09:06:04;;;;;;;36.17;18.13;;;;;;;;;;670738;205;918133;-66
2020/12/24 09:08:30;;;;;;;35.53;19.10;;;;;;;;;;663105;209;918414;-65
2020/12/24 09:10:56;;;;;;;32.65;19.60;;;;;;;;;;674989;205;918256;-63
2020/12/24 09:13:21;;;;;;;26.73;15.40;;;;;;;;;;679962;205;918643;-64
2020/12/24 09:15:47;;;;;;;30.87;15.23;;;;;;;;;;673135;204;1127440;-64
2020/12/24 09:18:13;;;;;;;29.27;15.00;;;;;;;;;;675285;205;934731;-64
2020/12/24 09:20:39;;;;;;;26.50;14.73;;;;;;;;;;678556;204;924008;-64
2020/12/24 09:23:08;;;;;;;25.30;16.17;;;;;;;;;;675542;204;920129;-64
2020/12/24 09:25:34;;;;;;;25.60;12.70;;;;;;;;;;670435;206;919226;-64
2020/12/24 09:27:59;;;;;;;26.73;15.30;;;;;;;;;;674868;204;919094;-63
2020/12/24 09:30:25;;;;;;;23.27;14.07;;;;;;;;;;680820;205;917870;-63
2020/12/24 09:32:51;;;;;;;23.80;16.47;;;;;;;;;;674459;205;919160;-64
2020/12/24 09:35:17;;;;;;;24.03;14.97;;;;;;;;;;672013;205;919000;-64
2020/12/24 09:37:43;;;;;;;19.90;15.20;;;;;;;;;;688328;199;1156737;-64
2020/12/24 09:40:09;;;;;;;33.23;17.40;;;;;;;;;;687091;199;918865;-64
2020/12/24 09:42:35;;;;;;;25.60;14.47;;;;;;;;;;688161;199;919083;-63
2020/12/24 09:45:00;;;;;;;25.50;13.70;;;;;;;;;;693539;199;919064;-64
2020/12/24 09:47:26;;;;;;;22.80;14.40;;;;;;;;;;688367;199;918181;-64
2020/12/24 09:49:52;;;;;;;30.90;16.00;;;;;;;;;;691840;199;925230;-64
2020/12/24 09:52:18;;;;;;;24.03;15.00;;;;;;;;;;689710;199;919332;-64
2020/12/24 09:54:45;;;;;;;22.30;16.07;;;;;;;;;;690309;202;918336;-64
2020/12/24 09:57:12;;;;;;;33.37;15.00;;;;;;;;;;686054;199;918499;-65
2020/12/24 09:59:38;;;;;;;20.17;13.50;;;;;;;;;;692607;199;633754;-63
2020/12/24 10:02:05;;;;;;;26.93;12.97;;;;;;;;;;695179;199;917575;-65
2020/12/24 10:04:31;;;;;;;25.60;14.07;;;;;;;;;;692706;199;653772;-64
2020/12/24 10:06:57;;;;;;;24.05;13.15;;;;;;;;;;691169;199;918836;-65
2020/12/24 10:09:23;;;;;;;25.53;13.40;;;;;;;;;;691678;201;910080;-64
2020/12/24 10:11:49;;;;;;;25.73;14.95;;;;;;;;;;691233;201;917674;-64
2020/12/24 10:14:15;;;;;;;24.10;14.47;;;;;;;;;;692497;199;634416;-64
2020/12/24 10:16:40;;;;;;;23.17;15.27;;;;;;;;;;687265;201;920687;-63
2020/12/24 10:19:06;;;;;;;21.50;14.27;;;;;;;;;;686652;202;917411;-64
2020/12/24 10:21:32;;;;;;;21.17;13.43;;;;;;;;;;685525;201;919232;-64
2020/12/24 10:23:58;;;;;;;25.77;14.13;;;;;;;;;;688053;199;918588;-64
2020/12/24 10:26:24;;;;;;;22.57;12.80;;;;;;;;;;693498;201;919348;-63
2020/12/24 10:28:50;;;;;;;20.87;13.80;;;;;;;;;;688370;199;901584;-64
2020/12/24 10:31:16;;;;;;;17.87;11.23;;;;;;;;;;687720;200;919082;-64
2020/12/24 10:33:41;;;;;;;14.60;9.47;;;;;;;;;;691977;199;919366;-64
2020/12/24 10:36:07;;;;;;;14.90;9.37;;;;;;;;;;687736;200;919244;-64
2020/12/24 10:38:36;;;;;;;12.80;9.23;;;;;;;;;;688211;199;919063;-65
2020/12/24 10:41:01;;;;;;;13.43;8.77;;;;;;;;;;688129;199;919035;-63
2020/12/24 10:43:28;;;;;;;12.70;8.10;;;;;;;;;;671851;206;896852;-64
2020/12/24 10:45:53;;;;;;;12.63;8.20;;;;;;;;;;669162;205;918936;-64
2020/12/24 10:48:18;;;;;;;12.33;7.87;;;;;;;;;;665269;207;1019624;-64
2020/12/24 10:50:44;;;;;;;10.40;7.50;;;;;;;;;;665586;206;915143;-65
2020/12/24 10:53:10;;;;;;;14.40;7.47;;;;;;;;;;691796;199;914175;-66
2020/12/24 10:55:37;;;;;;;8.88;6.12;;;;;;;;;;686237;200;918493;-69
2020/12/24 10:58:04;;;;;;;12.93;7.93;;;;;;;;;;692401;200;918965;-66
2020/12/24 11:00:30;;;;;;;11.00;7.43;;;;;;;;;;690390;199;919763;-66
2020/12/24 11:02:56;;;;;;;11.77;7.17;;;;;;;;;;691133;201;918243;-65
2020/12/24 11:05:25;;;;;;;11.33;7.40;;;;;;;;;;685846;199;1229224;-65
2020/12/24 11:07:48;;;;;;;10.13;7.30;;;;;;;;;;671419;205;918727;-65
2020/12/24 11:10:14;;;;;;;9.53;6.07;;;;;;;;;;668615;202;918438;-65
2020/12/24 11:12:40;;;;;;;10.02;6.82;;;;;;;;;;688185;202;919216;-66
2020/12/24 11:15:05;;;;;;;16.60;6.20;;;;;;;;;;691531;202;918596;-65
2020/12/24 11:17:31;;;;;;;11.33;6.93;;;;;;;;;;689344;201;920575;-64
2020/12/24 11:19:57;;;;;;;15.20;7.27;;;;;;;;;;690556;201;918884;-65
2020/12/24 11:22:23;;;;;;;14.50;7.87;;;;;;;;;;692259;201;922529;-65
2020/12/24 11:24:49;;;;;;;12.03;7.60;;;;;;;;;;690049;200;919155;-65
2020/12/24 11:27:15;;;;;;;9.60;7.00;;;;;;;;;;686366;200;919719;-65
2020/12/24 11:29:41;;;;;;;13.17;8.30;;;;;;;;;;692921;202;918900;-65
2020/12/24 11:32:06;;;;;;;14.13;7.20;;;;;;;;;;682360;200;1932504;-65
2020/12/24 11:34:32;;;;;;;9.60;6.33;;;;;;;;;;689380;200;919218;-65
2020/12/24 11:36:58;;;;;;;10.40;6.17;;;;;;;;;;686521;200;915536;-65
2020/12/24 11:39:24;;;;;;;14.13;5.87;;;;;;;;;;693310;200;915638;-65
2020/12/24 11:41:50;;;;;;;12.05;7.28;;;;;;;;;;684935;201;919846;-66
2020/12/24 11:44:16;;;;;;;11.43;7.20;;;;;;;;;;688775;200;915359;-65
2020/12/24 11:46:42;;;;;;;10.80;6.57;;;;;;;;;;690909;201;922428;-67
2020/12/24 11:49:08;;;;;;;10.30;7.20;;;;;;;;;;689456;201;918552;-66
2020/12/24 11:51:33;;;;;;;8.00;4.70;;;;;;;;;;686905;199;981586;-65
2020/12/24 11:53:59;;;;;;;8.73;4.13;;;;;;;;;;692744;199;921344;-64
2020/12/24 11:56:25;;;;;;;4.33;2.43;;;;;;;;;;689592;199;918986;-65
2020/12/24 11:58:51;;;;;;;6.03;3.13;;;;;;;;;;687197;199;916991;-64
2020/12/24 12:01:17;;;;;;;6.67;3.40;;;;;;;;;;687622;201;920013;-65
2020/12/24 12:03:43;;;;;;;4.60;3.20;;;;;;;;;;690073;198;918408;-67
2020/12/24 12:06:08;;;;;;;4.83;3.20;;;;;;;;;;687751;201;918384;-65
2020/12/24 12:08:34;;;;;;;6.37;3.33;;;;;;;;;;686606;199;917702;-65
2020/12/24 12:11:00;;;;;;;4.00;3.00;;;;;;;;;;694674;199;911898;-65
2020/12/24 12:13:26;;;;;;;6.50;3.37;;;;;;;;;;690213;199;910048;-67
2020/12/24 12:15:52;;;;;;;7.80;3.97;;;;;;;;;;688900;201;918877;-65
2020/12/24 12:18:18;;;;;;;6.93;3.63;;;;;;;;;;692588;200;911562;-65
2020/12/24 12:20:43;;;;;;;6.50;4.50;;;;;;;;;;691492;200;919464;-65
2020/12/24 12:23:09;;;;;;;8.10;4.77;;;;;;;;;;687409;202;920041;-65
2020/12/24 12:25:35;;;;;;;9.30;5.50;;;;;;;;;;694280;200;919317;-65
2020/12/24 12:28:01;;;;;;;10.93;6.10;;;;;;;;;;689688;201;919448;-66
2020/12/24 12:30:27;;;;;;;8.73;4.60;;;;;;;;;;694516;201;917498;-65
2020/12/24 12:32:53;;;;;;;7.47;4.67;;;;;;;;;;694274;199;626865;-67
2020/12/24 12:35:19;;;;;;;6.93;4.47;;;;;;;;;;693830;199;862739;-65
2020/12/24 12:37:45;;;;;;;7.07;4.33;;;;;;;;;;689951;200;918550;-65
2020/12/24 12:40:11;;;;;;;5.97;4.17;;;;;;;;;;688874;199;919163;-65
2020/12/24 12:42:36;;;;;;;6.83;4.53;;;;;;;;;;692033;200;919779;-65
2020/12/24 12:45:02;;;;;;;5.07;3.70;;;;;;;;;;688830;200;918388;-65
2020/12/24 12:47:28;;;;;;;7.23;4.60;;;;;;;;;;689288;200;944152;-65
2020/12/24 12:49:54;;;;;;;8.00;4.70;;;;;;;;;;690601;199;918821;-65
2020/12/24 12:52:20;;;;;;;6.97;4.53;;;;;;;;;;688573;199;919322;-65
2020/12/24 12:54:46;;;;;;;6.37;4.20;;;;;;;;;;687082;201;919300;-65
2020/12/24 12:57:11;;;;;;;7.20;5.27;;;;;;;;;;687608;200;1028436;-66
2020/12/24 12:59:37;;;;;;;9.93;5.47;;;;;;;;;;681701;202;1357374;-65
2020/12/24 13:02:03;;;;;;;10.40;6.07;;;;;;;;;;688768;201;919341;-65
2020/12/24 13:04:29;;;;;;;8.30;4.97;;;;;;;;;;684383;199;918973;-65
2020/12/24 13:06:55;;;;;;;8.10;4.50;;;;;;;;;;693487;202;922307;-65
2020/12/24 13:09:21;;;;;;;7.90;4.70;;;;;;;;;;687155;201;919046;-65
2020/12/24 13:11:47;;;;;;;6.30;4.60;;;;;;;;;;687403;200;918480;-65
2020/12/24 13:14:16;;;;;;;7.30;4.75;;;;;;;;;;692696;201;919416;-65
2020/12/24 13:16:38;;;;;;;6.30;4.57;;;;;;;;;;687832;200;918804;-65
2020/12/24 13:19:05;;;;;;;6.12;4.30;;;;;;;;;;690957;199;916262;-65
2020/12/24 13:21:31;;;;;;;5.97;3.90;;;;;;;;;;692183;198;917846;-64
2020/12/24 13:23:56;;;;;;;4.13;2.60;;;;;;;;;;689963;199;919303;-64
2020/12/24 13:26:22;;;;;;;3.97;3.23;;;;;;;;;;690934;200;911518;-64
2020/12/24 13:28:48;;;;;;;4.70;3.37;;;;;;;;;;688899;201;918237;-63
2020/12/24 13:31:14;;;;;;;5.63;3.43;;;;;;;;;;692259;201;918640;-64
2020/12/24 13:33:40;;;;;;;5.93;3.63;;;;;;;;;;690396;202;919554;-64
2020/12/24 13:36:06;;;;;;;5.43;3.67;;;;;;;;;;687611;200;918867;-63
2020/12/24 13:38:31;;;;;;;6.07;3.53;;;;;;;;;;693639;201;918951;-63
2020/12/24 13:40:57;;;;;;;5.53;3.83;;;;;;;;;;687427;199;973980;-64
2020/12/24 13:43:23;;;;;;;6.53;4.00;;;;;;;;;;690515;200;924819;-64
2020/12/24 13:45:49;;;;;;;6.90;4.37;;;;;;;;;;691659;200;919054;-66
2020/12/24 13:48:15;;;;;;;6.00;4.10;;;;;;;;;;688501;201;919536;-64
2020/12/24 13:50:42;;;;;;;7.57;4.40;;;;;;;;;;693056;200;661047;-63
2020/12/24 13:53:07;;;;;;;10.40;5.83;;;;;;;;;;690627;200;646572;-64
2020/12/24 13:55:33;;;;;;;8.30;4.50;;;;;;;;;;687956;202;918974;-63
2020/12/24 13:57:59;;;;;;;9.13;5.80;;;;;;;;;;685972;199;918919;-64
2020/12/24 14:00:25;;;;;;;9.90;5.23;;;;;;;;;;687606;199;917846;-64
2020/12/24 14:02:50;;;;;;;9.03;5.20;;;;;;;;;;691492;200;920105;-65